createdAt,value
2018-12-31T00:01:27.714Z,8.57
2018-12-31T00:06:30.400Z,7.93
2018-12-31T00:11:33.091Z,8.77
2018-12-31T00:16:35.836Z,8.80
2018-12-31T00:21:38.560Z,8.50
2018-12-31T00:26:41.558Z,9.30
2018-12-31T00:31:44.308Z,7.70
2018-12-31T00:36:47.076Z,6.57
2018-12-31T00:41:49.721Z,6.07
2018-12-31T00:46:52.161Z,7.57
2018-12-31T00:51:55.048Z,7.53
2018-12-31T00:56:57.710Z,7.07
2018-12-31T01:02:00.756Z,7.60
2018-12-31T01:07:03.988Z,7.03
2018-12-31T01:12:07.043Z,7.70
2018-12-31T01:17:09.464Z,6.60
2018-12-31T01:22:12.575Z,8.37
2018-12-31T01:27:15.659Z,7.13
2018-12-31T01:32:18.178Z,7.23
2018-12-31T01:37:20.827Z,8.00
2018-12-31T01:42:23.276Z,7.83
2018-12-31T01:47:25.906Z,7.43
2018-12-31T01:52:28.858Z,8.10
2018-12-31T01:57:30.916Z,8.30
2018-12-31T02:02:33.334Z,9.97
2018-12-31T02:07:35.967Z,8.03
2018-12-31T02:12:38.595Z,8.67
2018-12-31T02:17:41.263Z,10.10
2018-12-31T02:22:43.693Z,9.10
2018-12-31T02:27:46.522Z,9.43
2018-12-31T02:32:49.163Z,10.00
2018-12-31T02:37:52.204Z,10.57
2018-12-31T02:42:54.837Z,10.40
2018-12-31T02:47:57.834Z,9.63
2018-12-31T02:53:00.415Z,9.97
2018-12-31T02:58:02.910Z,7.27
2018-12-31T03:03:05.221Z,7.73
2018-12-31T03:08:07.586Z,10.10
2018-12-31T03:13:09.580Z,10.10
2018-12-31T03:18:11.972Z,10.07
2018-12-31T03:23:14.352Z,12.93
2018-12-31T03:28:16.444Z,9.17
2018-12-31T03:33:19.138Z,11.13
2018-12-31T03:38:22.321Z,10.13
2018-12-31T03:43:24.696Z,10.00
2018-12-31T03:48:27.633Z,10.50
2018-12-31T03:53:30.315Z,11.40
2018-12-31T03:58:32.730Z,11.80
2018-12-31T04:03:35.420Z,12.33
2018-12-31T04:08:37.810Z,15.87
2018-12-31T04:13:40.424Z,11.30
2018-12-31T04:18:43.280Z,11.93
2018-12-31T04:23:45.703Z,14.37
2018-12-31T04:28:48.293Z,12.33
2018-12-31T04:33:51.192Z,12.80
2018-12-31T04:38:53.821Z,16.00
2018-12-31T04:43:56.791Z,12.33
2018-12-31T04:48:58.854Z,12.23
2018-12-31T04:54:01.281Z,13.73
2018-12-31T04:59:03.671Z,15.03
2018-12-31T05:04:05.972Z,13.00
2018-12-31T05:09:08.458Z,15.87
2018-12-31T05:14:11.069Z,17.43
2018-12-31T05:19:14.008Z,15.50
2018-12-31T05:24:16.360Z,14.93
2018-12-31T05:29:18.788Z,16.60
2018-12-31T05:34:21.461Z,16.50
2018-12-31T05:39:24.232Z,15.10
2018-12-31T05:44:26.921Z,17.73
2018-12-31T05:49:29.316Z,18.80
2018-12-31T05:54:31.985Z,17.00
2018-12-31T05:59:34.657Z,17.90
2018-12-31T06:04:37.207Z,16.97
2018-12-31T06:09:39.203Z,15.87
2018-12-31T06:14:41.862Z,20.80
2018-12-31T06:19:43.940Z,21.73
2018-12-31T06:24:46.664Z,21.70
2018-12-31T06:29:49.228Z,21.33
2018-12-31T06:34:52.233Z,28.97
2018-12-31T06:39:54.250Z,27.07
2018-12-31T06:44:57.216Z,30.33
2018-12-31T06:50:00.356Z,27.03
2018-12-31T06:55:02.960Z,26.80
2018-12-31T07:00:06.099Z,28.77
2018-12-31T07:05:09.038Z,24.40
2018-12-31T07:10:11.355Z,28.30
2018-12-31T07:15:13.456Z,33.60
2018-12-31T07:20:15.141Z,31.73
2018-12-31T07:25:17.817Z,35.90
2018-12-31T07:30:19.881Z,26.27
2018-12-31T07:35:22.539Z,30.83
2018-12-31T07:40:25.153Z,41.73
2018-12-31T07:45:27.814Z,32.13
2018-12-31T07:50:30.452Z,31.83
2018-12-31T07:55:33.438Z,31.53
2018-12-31T08:00:36.096Z,31.53
2018-12-31T08:05:38.827Z,27.63
2018-12-31T08:10:41.776Z,27.17
2018-12-31T08:15:44.672Z,24.33
2018-12-31T08:20:47.342Z,21.27
2018-12-31T08:25:49.981Z,21.87
2018-12-31T08:30:52.897Z,21.33
2018-12-31T08:35:55.445Z,22.30
2018-12-31T08:40:58.369Z,21.50
2018-12-31T08:46:01.293Z,17.67
2018-12-31T08:51:03.394Z,18.67
2018-12-31T08:56:06.148Z,18.13
2018-12-31T09:01:09.180Z,19.53
2018-12-31T09:06:11.956Z,19.80
2018-12-31T09:11:14.791Z,20.07
2018-12-31T09:16:17.908Z,16.80
2018-12-31T09:21:20.994Z,18.30
2018-12-31T09:26:23.669Z,19.27
2018-12-31T09:31:25.841Z,17.40
2018-12-31T09:36:28.862Z,17.03
2018-12-31T09:41:31.787Z,18.13
2018-12-31T09:46:34.174Z,15.63
2018-12-31T09:51:37.168Z,13.67
2018-12-31T09:56:39.379Z,12.57
2018-12-31T10:01:42.295Z,11.97
2018-12-31T10:06:44.650Z,11.93
2018-12-31T10:11:47.630Z,9.70
2018-12-31T10:16:50.581Z,12.07
2018-12-31T10:21:52.982Z,10.77
2018-12-31T10:26:55.766Z,10.33
2018-12-31T10:31:58.270Z,11.10
2018-12-31T10:37:01.586Z,12.00
2018-12-31T10:42:04.740Z,15.30
2018-12-31T10:47:07.807Z,12.47
2018-12-31T10:52:10.527Z,13.30
2018-12-31T10:57:12.979Z,12.90
2018-12-31T11:02:15.873Z,10.50
2018-12-31T11:07:17.910Z,10.20
2018-12-31T11:12:20.708Z,11.27
2018-12-31T11:17:24.589Z,13.33
2018-12-31T11:22:27.272Z,11.47
2018-12-31T11:27:30.083Z,11.97
2018-12-31T11:32:33.176Z,10.00
2018-12-31T11:37:36.108Z,12.80
2018-12-31T11:42:38.762Z,11.90
2018-12-31T11:47:41.753Z,15.90
2018-12-31T11:52:44.264Z,11.37
2018-12-31T11:57:46.998Z,12.17
2018-12-31T12:02:49.178Z,10.93
2018-12-31T12:07:52.197Z,10.67
2018-12-31T12:12:54.828Z,9.37
2018-12-31T12:17:57.769Z,9.50
2018-12-31T12:22:59.766Z,8.73
2018-12-31T12:28:02.166Z,8.57
2018-12-31T12:33:05.072Z,8.77
2018-12-31T12:38:07.445Z,10.73
2018-12-31T12:43:10.761Z,10.83
2018-12-31T12:48:12.963Z,11.30
2018-12-31T12:53:16.186Z,16.10
2018-12-31T12:58:19.249Z,10.00
2018-12-31T13:03:22.159Z,11.17
2018-12-31T13:08:25.102Z,12.00
2018-12-31T13:13:27.688Z,15.50
2018-12-31T13:18:30.367Z,12.50
2018-12-31T13:23:33.409Z,9.90
2018-12-31T13:28:36.418Z,9.97
2018-12-31T13:33:39.618Z,11.70
2018-12-31T13:38:42.766Z,11.83
2018-12-31T13:43:45.177Z,10.87
2018-12-31T13:48:48.220Z,11.40
2018-12-31T13:53:50.832Z,11.67
2018-12-31T13:58:53.362Z,9.97
2018-12-31T14:03:55.762Z,11.03
2018-12-31T14:08:58.440Z,13.30
2018-12-31T14:14:00.860Z,14.90
2018-12-31T14:19:03.967Z,14.20
2018-12-31T14:24:06.872Z,14.20
2018-12-31T14:29:10.128Z,16.63
2018-12-31T14:34:13.201Z,19.50
2018-12-31T14:39:16.240Z,16.97
2018-12-31T14:44:18.629Z,17.65
2018-12-31T14:49:21.280Z,10.60
2018-12-31T14:54:23.989Z,12.03
2018-12-31T14:59:26.625Z,10.07
2018-12-31T15:04:29.170Z,8.93
2018-12-31T15:09:32.033Z,8.20
2018-12-31T15:14:35.906Z,9.13
2018-12-31T15:19:38.384Z,8.30
2018-12-31T15:24:41.290Z,7.53
2018-12-31T15:29:43.801Z,7.57
2018-12-31T15:34:46.821Z,8.20
2018-12-31T15:39:49.856Z,8.80
2018-12-31T15:44:52.738Z,7.40
2018-12-31T15:49:55.303Z,5.97
2018-12-31T15:54:58.585Z,9.93
2018-12-31T16:00:01.621Z,35.93
2018-12-31T16:05:04.779Z,16.60
2018-12-31T16:10:07.740Z,7.10
2018-12-31T16:15:10.494Z,7.93
2018-12-31T16:20:13.228Z,7.27
2018-12-31T16:25:15.932Z,8.10
2018-12-31T16:30:18.034Z,9.07
2018-12-31T16:35:20.633Z,9.40
2018-12-31T16:40:23.924Z,10.33
2018-12-31T16:45:26.828Z,14.53
2018-12-31T16:50:29.206Z,14.57
2018-12-31T16:55:31.818Z,17.67
2018-12-31T17:00:34.532Z,28.00
2018-12-31T17:05:37.606Z,14.00
2018-12-31T17:10:40.596Z,10.60
2018-12-31T17:15:42.994Z,11.22
2018-12-31T17:20:45.554Z,14.17
2018-12-31T17:25:47.980Z,11.03
2018-12-31T17:30:51.087Z,11.57
2018-12-31T17:35:53.604Z,10.87
2018-12-31T17:40:56.521Z,13.03
2018-12-31T17:45:59.192Z,17.30
2018-12-31T17:51:01.796Z,21.50
2018-12-31T17:56:04.443Z,17.07
2018-12-31T18:01:08.142Z,13.63
2018-12-31T18:06:10.983Z,18.90
2018-12-31T18:11:14.014Z,12.67
2018-12-31T18:16:16.806Z,8.23
2018-12-31T18:21:19.515Z,10.50
2018-12-31T18:26:22.206Z,9.37
2018-12-31T18:31:24.955Z,8.63
2018-12-31T18:36:27.730Z,9.73
2018-12-31T18:41:30.203Z,7.60
2018-12-31T18:46:32.805Z,7.50
2018-12-31T18:51:35.410Z,8.70
2018-12-31T18:56:38.257Z,10.67
2018-12-31T19:01:41.207Z,9.10
2018-12-31T19:06:43.697Z,15.43
2018-12-31T19:11:46.325Z,25.70
2018-12-31T19:16:49.361Z,18.60
2018-12-31T19:21:52.468Z,16.20
2018-12-31T19:26:55.198Z,24.57
2018-12-31T19:31:58.023Z,34.60
2018-12-31T19:37:00.723Z,74.53
2018-12-31T19:42:03.087Z,29.57
2018-12-31T19:47:05.978Z,33.45
2018-12-31T19:52:08.642Z,22.10
2018-12-31T19:57:11.275Z,21.97
2018-12-31T20:02:13.367Z,23.80
2018-12-31T20:07:16.083Z,21.43
2018-12-31T20:12:18.385Z,22.07
2018-12-31T20:17:21.935Z,21.10
2018-12-31T20:22:24.674Z,20.37
2018-12-31T20:27:27.783Z,18.03
2018-12-31T20:32:30.532Z,19.20
2018-12-31T20:37:33.179Z,24.30
2018-12-31T20:42:35.917Z,19.27
2018-12-31T20:47:38.633Z,19.33
2018-12-31T20:52:41.458Z,19.63
2018-12-31T20:57:44.135Z,20.13
2018-12-31T21:02:46.654Z,17.90
2018-12-31T21:07:49.283Z,19.63
2018-12-31T21:12:51.554Z,18.87
2018-12-31T21:17:54.739Z,20.50
2018-12-31T21:22:57.855Z,26.47
2018-12-31T21:28:00.175Z,34.50
2018-12-31T21:33:03.495Z,16.00
2018-12-31T21:38:06.218Z,14.07
2018-12-31T21:43:08.397Z,13.27
2018-12-31T21:48:11.678Z,13.63
2018-12-31T21:53:14.063Z,12.17
2018-12-31T21:58:16.506Z,12.37
2018-12-31T22:03:19.458Z,10.20
2018-12-31T22:08:22.479Z,10.20
2018-12-31T22:13:25.546Z,11.40
2018-12-31T22:18:28.242Z,12.27
2018-12-31T22:23:31.223Z,10.30
2018-12-31T22:28:34.375Z,11.30
2018-12-31T22:33:37.620Z,10.93
2018-12-31T22:38:40.335Z,10.93
2018-12-31T22:43:42.975Z,9.53
2018-12-31T22:48:45.975Z,10.67
2018-12-31T22:53:48.881Z,9.87
2018-12-31T22:58:51.231Z,10.40
2018-12-31T23:07:58.567Z,43.77
2018-12-31T23:13:00.893Z,117.93
2018-12-31T23:18:03.650Z,95.33
2018-12-31T23:23:06.768Z,54.37
2018-12-31T23:28:09.565Z,35.17
2018-12-31T23:33:12.048Z,22.47
2018-12-31T23:38:14.388Z,17.53
2018-12-31T23:43:16.468Z,13.30
2018-12-31T23:48:19.236Z,12.07
2018-12-31T23:53:22.491Z,10.73
2018-12-31T23:58:25.565Z,11.73
